Flight Track Log - Related Links

Times and Time Zones

All times are in EST time to prevent confusion due to time zone crossing. See the AFL150 flight status page for this flight to view local times or setup timezone preferences in your user account.

Time Position Orientation Groundspeed Altitude Reporting Facility
EST Latitude Longitude Course Direction KTS MPH feet Rate Location/Type
Sun 04:38:00 AM 56.2548 36.8427 311° West  Level FlightAware Approximate
Sun 04:39:00 AM 56.3301 36.6809 310° West  Level FlightAware Approximate
Sun 04:40:00 AM 56.4051 36.5184 310° West  Level FlightAware Approximate
Sun 04:41:00 AM 56.4799 36.3554 310° West  Level FlightAware Approximate
Sun 04:42:00 AM 56.5546 36.1916 310° West  Level FlightAware Approximate
Sun 04:43:00 AM 56.6289 36.0273 309° West  Level FlightAware Approximate
Sun 04:44:00 AM 56.7031 35.8623 309° West  Level FlightAware Approximate
Sun 04:45:00 AM 56.7771 35.6966 309° West  Level FlightAware Approximate
Sun 04:46:00 AM 56.8508 35.5303 309° West  Level FlightAware Approximate
Sun 04:47:00 AM 56.9243 35.3633 309° West  Level FlightAware Approximate
Sun 04:48:00 AM 56.9976 35.1956 309° West  Level FlightAware Approximate
Sun 04:49:00 AM 57.0707 35.0274 309° West  Level FlightAware Approximate
Sun 04:50:00 AM 57.1436 34.8584 309° West  Level FlightAware Approximate
Sun 04:51:00 AM 57.2162 34.6888 308° West  Level FlightAware Approximate
Sun 04:52:00 AM 57.2886 34.5185 308° West  Level FlightAware Approximate
Sun 04:53:00 AM 57.3607 34.3475 308° West  Level FlightAware Approximate
Sun 04:54:00 AM 57.3770 34.3073 306° West  Level FlightAware Approximate
Sun 04:55:00 AM 57.4465 34.1321 306° West  Level FlightAware Approximate
Sun 04:56:00 AM 57.5157 33.9563 306° West  Level FlightAware Approximate
Sun 04:57:00 AM 57.5847 33.7798 306° West  Level FlightAware Approximate
Sun 04:58:00 AM 57.6534 33.6026 306° West  Level FlightAware Approximate
Sun 04:59:00 AM 57.7219 33.4248 306° West  Level FlightAware Approximate
Sun 05:00:00 AM 57.7901 33.2463 306° West  Level FlightAware Approximate
Sun 05:01:00 AM 57.8581 33.0671 306° West  Level FlightAware Approximate
Sun 05:02:00 AM 57.9258 32.8872 305° West  Level FlightAware Approximate
Sun 05:03:00 AM 57.9933 32.7067 305° West  Level FlightAware Approximate
Sun 05:04:00 AM 58.0605 32.5255 305° West  Level FlightAware Approximate
Sun 05:05:00 AM 58.1274 32.3436 305° West  Level FlightAware Approximate
Sun 05:06:00 AM 58.1941 32.1610 305° West  Level FlightAware Approximate
Sun 05:07:00 AM 58.2606 31.9777 305° West  Level FlightAware Approximate
Sun 05:08:00 AM 58.3267 31.7938 304° West  Level FlightAware Approximate
Sun 05:09:00 AM 58.3926 31.6091 304° West  Level FlightAware Approximate
Sun 05:10:00 AM 58.4583 31.4238 304° West  Level FlightAware Approximate
Sun 05:11:00 AM 58.5236 31.2377 304° West  Level FlightAware Approximate
Sun 05:12:00 AM 58.5887 31.0510 304° West  Level FlightAware Approximate
Sun 05:13:00 AM 58.6536 30.8636 304° West  Level FlightAware Approximate
Sun 05:14:00 AM 58.7181 30.6755 304° West  Level FlightAware Approximate
Sun 05:15:00 AM 58.7824 30.4867 303° West  Level FlightAware Approximate
Sun 05:16:00 AM 58.8464 30.2972 303° West  Level FlightAware Approximate
Sun 05:17:00 AM 58.9101 30.1070 303° West  Level FlightAware Approximate
Sun 05:18:00 AM 58.9736 29.9161 303° West  Level FlightAware Approximate
Sun 05:19:00 AM 59.0367 29.7244 303° West  Level FlightAware Approximate
Sun 05:20:00 AM 59.0996 29.5321 303° West  Level FlightAware Approximate
Sun 05:21:00 AM 59.1622 29.3391 302° West  Level FlightAware Approximate
Sun 05:22:00 AM 59.2245 29.1454 302° West  Level FlightAware Approximate
Sun 05:23:00 AM 59.2865 28.9510 302° West  Level FlightAware Approximate
Sun 05:24:00 AM 59.3482 28.7558 302° West  Level FlightAware Approximate
Sun 05:25:00 AM 59.4097 28.5600 302° West  Level FlightAware Approximate
Sun 05:26:00 AM 59.4708 28.3634 302° West  Level FlightAware Approximate
Sun 05:27:00 AM 59.5316 28.1661 301° West  Level FlightAware Approximate
Sun 05:28:00 AM 59.5922 27.9681 301° West  Level FlightAware Approximate
Sun 05:29:00 AM 59.6524 27.7694 301° West  Level FlightAware Approximate
Sun 05:30:00 AM 59.7124 27.5700 301° West  Level FlightAware Approximate
Sun 05:31:00 AM 59.7720 27.3699 301° West  Level FlightAware Approximate
Sun 05:32:00 AM 59.8313 27.1691 301° West  Level FlightAware Approximate
Sun 05:33:00 AM 59.8904 26.9675 300° West  Level FlightAware Approximate
Sun 05:34:00 AM 59.9491 26.7652 300° West  Level FlightAware Approximate
Sun 05:35:00 AM 60.0075 26.5623 300° West  Level FlightAware Approximate
Sun 05:36:00 AM 60.0656 26.3586 300° West  Level FlightAware Approximate
Sun 05:37:00 AM 60.1233 26.1542 300° West  Level FlightAware Approximate
Sun 05:38:00 AM 60.1808 25.9490 299° West  Level FlightAware Approximate
Sun 05:39:00 AM 60.2380 25.7432 299° West  Level FlightAware Approximate
Sun 05:40:00 AM 60.2948 25.5366 299° West  Level FlightAware Approximate
Sun 05:41:00 AM 60.3513 25.3293 299° West  Level FlightAware Approximate
Sun 05:42:00 AM 60.4075 25.1213 299° West  Level FlightAware Approximate
Sun 05:43:00 AM 60.4633 24.9126 299° West  Level FlightAware Approximate
Sun 05:44:00 AM 60.5188 24.7031 298° West  Level FlightAware Approximate
Sun 05:45:00 AM 60.5741 24.4930 298° West  Level FlightAware Approximate
Sun 05:46:00 AM 60.6289 24.2821 298° West  Level FlightAware Approximate
Sun 05:47:00 AM 60.6834 24.0705 298° West  Level FlightAware Approximate
Sun 05:48:00 AM 60.7377 23.8582 298° West  Level FlightAware Approximate
Sun 05:49:00 AM 60.7915 23.6452 297° West  Level FlightAware Approximate
Sun 05:50:00 AM 60.8450 23.4315 297° West  Level FlightAware Approximate
Sun 05:51:00 AM 60.8982 23.2170 297° West  Level FlightAware Approximate
Sun 05:52:00 AM 60.9511 23.0019 297° West  Level FlightAware Approximate
Sun 05:53:00 AM 61.0036 22.7860 297° West  Level FlightAware Approximate
Sun 05:54:00 AM 61.0557 22.5694 297° West  Level FlightAware Approximate
Sun 05:55:00 AM 61.1075 22.3521 296° West  Level FlightAware Approximate
Sun 05:56:00 AM 61.1590 22.1341 296° West  Level FlightAware Approximate
Sun 05:57:00 AM 61.2101 21.9153 296° West  Level FlightAware Approximate
Sun 05:58:00 AM 61.2608 21.6959 296° West  Level FlightAware Approximate
Sun 05:59:00 AM 61.3112 21.4758 296° West  Level FlightAware Approximate
Sun 06:00:00 AM 61.3613 21.2549 295° West  Level FlightAware Approximate
Sun 06:01:00 AM 61.4109 21.0334 295° West  Level FlightAware Approximate
Sun 06:02:00 AM 61.4603 20.8111 295° West  Level FlightAware Approximate
Sun 06:03:00 AM 61.5092 20.5882 295° West  Level FlightAware Approximate
Sun 06:04:00 AM 61.5578 20.3645 295° West  Level FlightAware Approximate
Sun 06:05:00 AM 61.6060 20.1401 294° West  Level FlightAware Approximate
Sun 06:06:00 AM 61.6539 19.9151 294° West  Level FlightAware Approximate
Sun 06:07:00 AM 61.7014 19.6893 294° West  Level FlightAware Approximate
Sun 06:08:00 AM 61.7485 19.4629 294° West  Level FlightAware Approximate
Sun 06:09:00 AM 61.7952 19.2358 294° West  Level FlightAware Approximate
Sun 06:10:00 AM 61.8416 19.0079 293° West  Level FlightAware Approximate
Sun 06:11:00 AM 61.8875 18.7794 293° West  Level FlightAware Approximate
Sun 06:12:00 AM 61.9331 18.5502 293° West  Level FlightAware Approximate
Sun 06:13:00 AM 61.9784 18.3204 293° West  Level FlightAware Approximate
Sun 06:14:00 AM 62.0232 18.0898 293° West  Level FlightAware Approximate
Sun 06:15:00 AM 62.0676 17.8586 292° West  Level FlightAware Approximate
Sun 06:16:00 AM 62.1117 17.6267 292° West  Level FlightAware Approximate
Sun 06:17:00 AM 62.1554 17.3941 292° West  Level FlightAware Approximate
Sun 06:18:00 AM 62.1987 17.1608 292° West  Level FlightAware Approximate
Sun 06:19:00 AM 62.2416 16.9269 292° West  Level FlightAware Approximate
Sun 06:20:00 AM 62.2841 16.6923 291° West  Level FlightAware Approximate
Sun 06:21:00 AM 62.3262 16.4571 291° West  Level FlightAware Approximate
Sun 06:22:00 AM 62.3679 16.2212 291° West  Level FlightAware Approximate
Sun 06:23:00 AM 62.4092 15.9847 291° West  Level FlightAware Approximate
Sun 06:24:00 AM 62.4501 15.7475 291° West  Level FlightAware Approximate
Sun 06:25:00 AM 62.4906 15.5096 290° West  Level FlightAware Approximate
Sun 06:26:00 AM 62.5306 15.2711 290° West  Level FlightAware Approximate
Sun 06:27:00 AM 62.5703 15.0320 290° West  Level FlightAware Approximate
Sun 06:28:00 AM 62.6096 14.7922 290° West  Level FlightAware Approximate
Sun 06:29:00 AM 62.6485 14.5518 289° West  Level FlightAware Approximate
Sun 06:30:00 AM 62.6869 14.3108 289° West  Level FlightAware Approximate
Sun 06:31:00 AM 62.7250 14.0692 289° West  Level FlightAware Approximate
Sun 06:32:00 AM 62.7626 13.8269 289° West  Level FlightAware Approximate
Sun 06:33:00 AM 62.7999 13.5841 289° West  Level FlightAware Approximate
Sun 06:34:00 AM 62.8367 13.3406 288° West  Level FlightAware Approximate
Sun 06:35:00 AM 62.8731 13.0965 288° West  Level FlightAware Approximate
Sun 06:36:00 AM 62.9090 12.8518 288° West  Level FlightAware Approximate
Sun 06:37:00 AM 62.9446 12.6066 288° West  Level FlightAware Approximate
Sun 06:38:00 AM 62.9797 12.3607 288° West  Level FlightAware Approximate
Sun 06:39:00 AM 63.0144 12.1142 287° West  Level FlightAware Approximate
Sun 06:40:00 AM 63.0487 11.8672 287° West  Level FlightAware Approximate
Sun 06:41:00 AM 63.0825 11.6196 287° West  Level FlightAware Approximate
Sun 06:42:00 AM 63.1159 11.3714 287° West  Level FlightAware Approximate
Sun 06:43:00 AM 63.1489 11.1226 286° West  Level FlightAware Approximate
Sun 06:44:00 AM 63.1814 10.8733 286° West  Level FlightAware Approximate
Sun 06:45:00 AM 63.2135 10.6234 286° West  Level FlightAware Approximate
Sun 06:46:00 AM 63.2451 10.3730 286° West  Level FlightAware Approximate
Sun 06:47:00 AM 63.2763 10.1220 286° West  Level FlightAware Approximate
Sun 06:48:00 AM 63.3071 9.8705 285° West  Level FlightAware Approximate
Sun 06:49:00 AM 63.3374 9.6184 285° West  Level FlightAware Approximate
Sun 06:50:00 AM 63.3673 9.3659 285° West  Level FlightAware Approximate
Sun 06:51:00 AM 63.3967 9.1128 285° West  Level FlightAware Approximate
Sun 06:52:00 AM 63.4257 8.8591 284° West  Level FlightAware Approximate
Sun 06:53:00 AM 63.4542 8.6050 284° West  Level FlightAware Approximate
Sun 06:54:00 AM 63.4823 8.3504 284° West  Level FlightAware Approximate
Sun 06:55:00 AM 63.5099 8.0953 284° West  Level FlightAware Approximate
Sun 06:56:00 AM 63.5371 7.8397 284° West  Level FlightAware Approximate
Sun 06:57:00 AM 63.5638 7.5835 283° West  Level FlightAware Approximate
Sun 06:58:00 AM 63.5901 7.3270 283° West  Level FlightAware Approximate
Sun 06:59:00 AM 63.6159 7.0699 283° West  Level FlightAware Approximate
Sun 07:00:00 AM 63.6412 6.8124 283° West  Level FlightAware Approximate
Sun 07:01:00 AM 63.6661 6.5545 282° West  Level FlightAware Approximate
Sun 07:02:00 AM 63.6905 6.2960 282° West  Level FlightAware Approximate
Sun 07:03:00 AM 63.7145 6.0372 282° West  Level FlightAware Approximate
Sun 07:04:00 AM 63.7380 5.7779 282° West  Level FlightAware Approximate
Sun 07:05:00 AM 63.7610 5.5182 281° West  Level FlightAware Approximate
Sun 07:06:00 AM 63.7836 5.2580 281° West  Level FlightAware Approximate
Sun 07:07:00 AM 63.8056 4.9975 281° West  Level FlightAware Approximate
Sun 07:08:00 AM 63.8273 4.7365 281° West  Level FlightAware Approximate
Sun 07:09:00 AM 63.8484 4.4752 281° West  Level FlightAware Approximate
Sun 07:10:00 AM 63.8691 4.2135 280° West  Level FlightAware Approximate
Sun 07:11:00 AM 63.8893 3.9513 280° West  Level FlightAware Approximate
Sun 07:12:00 AM 63.9090 3.6889 280° West  Level FlightAware Approximate
Sun 07:13:00 AM 63.9282 3.4260 280° West  Level FlightAware Approximate
Sun 07:14:00 AM 63.9470 3.1628 279° West  Level FlightAware Approximate
Sun 07:15:00 AM 63.9653 2.8992 279° West  Level FlightAware Approximate
Sun 07:16:00 AM 63.9831 2.6353 279° West  Level FlightAware Approximate
Sun 07:17:00 AM 64.0005 2.3711 279° West  Level FlightAware Approximate
Sun 07:18:00 AM 64.0173 2.1065 278° West  Level FlightAware Approximate
Sun 07:19:00 AM 64.0336 1.8417 278° West  Level FlightAware Approximate
Sun 07:20:00 AM 64.0495 1.5764 278° West  Level FlightAware Approximate
Sun 07:21:00 AM 64.0648 1.3110 278° West  Level FlightAware Approximate
Sun 07:22:00 AM 64.0797 1.0452 277° West  Level FlightAware Approximate
Sun 07:23:00 AM 64.0941 0.7791 277° West  Level FlightAware Approximate
Sun 07:24:00 AM 64.1080 0.5128 277° West  Level FlightAware Approximate
Sun 07:25:00 AM 64.1214 0.2462 277° West  Level FlightAware Approximate
Sun 07:26:00 AM 64.1344 -0.0206 276° West  Level FlightAware Approximate
Sun 07:27:00 AM 64.1472 -0.2876 276° West  Level FlightAware Approximate
Sun 07:28:00 AM 64.1596 -0.5548 276° West  Level FlightAware Approximate
Sun 07:29:00 AM 64.1715 -0.8223 276° West  Level FlightAware Approximate
Sun 07:30:00 AM 64.1829 -1.0900 276° West  Level FlightAware Approximate
Sun 07:31:00 AM 64.1938 -1.3579 275° West  Level FlightAware Approximate
Sun 07:32:00 AM 64.2042 -1.6260 275° West  Level FlightAware Approximate
Sun 07:33:00 AM 64.2141 -1.8943 275° West  Level FlightAware Approximate
Sun 07:34:00 AM 64.2235 -2.1628 275° West  Level FlightAware Approximate
Sun 07:35:00 AM 64.2324 -2.4314 274° West  Level FlightAware Approximate
Sun 07:36:00 AM 64.2409 -2.7003 274° West  Level FlightAware Approximate
Sun 07:37:00 AM 64.2488 -2.9693 274° West  Level FlightAware Approximate
Sun 07:38:00 AM 64.2563 -3.2384 274° West  Level FlightAware Approximate
Sun 07:39:00 AM 64.2632 -3.5077 274° West  Level FlightAware Approximate
Sun 07:40:00 AM 64.2697 -3.7771 273° West  Level FlightAware Approximate
Sun 07:41:00 AM 64.2757 -4.0467 273° West  Level FlightAware Approximate
Sun 07:42:00 AM 64.2811 -4.3163 273° West  Level FlightAware Approximate
Sun 07:43:00 AM 64.2861 -4.5861 273° West  Level FlightAware Approximate
Sun 07:44:00 AM 64.2906 -4.8559 272° West  Level FlightAware Approximate
Sun 07:45:00 AM 64.2946 -5.1258 272° West  Level FlightAware Approximate
Sun 07:46:00 AM 64.2980 -5.3958 272° West  Level FlightAware Approximate
Sun 07:47:00 AM 64.3010 -5.6659 272° West  Level FlightAware Approximate
Sun 07:48:00 AM 64.3035 -5.9360 271° West  Level FlightAware Approximate
Sun 07:49:00 AM 64.3055 -6.2062 271° West  Level FlightAware Approximate
Sun 07:50:00 AM 64.3070 -6.4764 271° West  Level FlightAware Approximate
Sun 07:51:00 AM 64.3080 -6.7466 271° West  Level FlightAware Approximate
Sun 07:52:00 AM 64.3085 -7.0168 270° West  Level FlightAware Approximate
Sun 07:53:00 AM 64.3085 -7.2871 270° West  Level FlightAware Approximate
Sun 07:54:00 AM 64.3080 -7.5573 270° West  Level FlightAware Approximate
Sun 07:55:00 AM 64.3070 -7.8275 270° West  Level FlightAware Approximate
Sun 07:56:00 AM 64.3055 -8.0977 269° West  Level FlightAware Approximate
Sun 07:57:00 AM 64.3035 -8.3679 269° West  Level FlightAware Approximate
Sun 07:58:00 AM 64.3010 -8.6380 269° West  Level FlightAware Approximate
Sun 07:59:00 AM 64.2976 -8.9080 268° West  Level FlightAware Approximate
Sun 08:00:00 AM 64.2934 -9.1780 268° West  Level FlightAware Approximate
Sun 08:01:00 AM 64.2888 -9.4478 268° West  Level FlightAware Approximate
Sun 08:02:00 AM 64.2836 -9.7176 268° West  Level FlightAware Approximate
Sun 08:03:00 AM 64.2780 -9.9873 267° West  Level FlightAware Approximate
Sun 08:04:00 AM 64.2718 -10.2568 267° West  Level FlightAware Approximate
Sun 08:05:00 AM 64.2652 -10.5262 267° West  Level FlightAware Approximate
Sun 08:06:00 AM 64.2580 -10.7955 267° West  Level FlightAware Approximate
Sun 08:07:00 AM 64.2504 -11.0646 266° West  Level FlightAware Approximate
Sun 08:08:00 AM 64.2423 -11.3336 266° West  Level FlightAware Approximate
Sun 08:09:00 AM 64.2337 -11.6024 266° West  Level FlightAware Approximate
Sun 08:10:00 AM 64.2245 -11.8711 266° West  Level FlightAware Approximate
Sun 08:11:00 AM 64.2149 -12.1395 265° West  Level FlightAware Approximate
Sun 08:12:00 AM 64.2048 -12.4078 265° West  Level FlightAware Approximate
Sun 08:13:00 AM 64.1943 -12.6759 265° West  Level FlightAware Approximate
Sun 08:14:00 AM 64.1832 -12.9438 265° West  Level FlightAware Approximate
Sun 08:15:00 AM 64.1716 -13.2114 264° West  Level FlightAware Approximate
Sun 08:16:00 AM 64.1595 -13.4788 264° West  Level FlightAware Approximate
Sun 08:17:00 AM 64.1470 -13.7460 264° West  Level FlightAware Approximate
Sun 08:18:00 AM 64.1339 -14.0129 264° West  Level FlightAware Approximate
Sun 08:19:00 AM 64.1204 -14.2796 263° West  Level FlightAware Approximate
Sun 08:20:00 AM 64.1064 -14.5460 263° West  Level FlightAware Approximate
Sun 08:21:00 AM 64.0919 -14.8122 263° West  Level FlightAware Approximate
Sun 08:22:00 AM 64.0769 -15.0780 263° West  Level FlightAware Approximate
Sun 08:23:00 AM 64.0615 -15.3436 263° West  Level FlightAware Approximate
Sun 08:24:00 AM 64.0455 -15.6089 262° West  Level FlightAware Approximate
Sun 08:25:00 AM 64.0291 -15.8738 262° West  Level FlightAware Approximate
Sun 08:26:00 AM 64.0122 -16.1385 262° West  Level FlightAware Approximate
Sun 08:27:00 AM 63.9948 -16.4028 262° West  Level FlightAware Approximate
Sun 08:28:00 AM 63.9769 -16.6668 261° West  Level FlightAware Approximate
Sun 08:29:00 AM 63.9585 -16.9304 261° West  Level FlightAware Approximate
Sun 08:30:00 AM 63.9397 -17.1937 261° West  Level FlightAware Approximate
Sun 08:31:00 AM 63.9204 -17.4567 261° West  Level FlightAware Approximate
Sun 08:32:00 AM 63.9006 -17.7192 260° West  Level FlightAware Approximate
Sun 08:33:00 AM 63.8803 -17.9814 260° West  Level FlightAware Approximate
Sun 08:34:00 AM 63.8596 -18.2433 260° West  Level FlightAware Approximate
Sun 08:35:00 AM 63.8384 -18.5047 260° West  Level FlightAware Approximate
Sun 08:36:00 AM 63.8167 -18.7657 259° West  Level FlightAware Approximate
Sun 08:37:00 AM 63.7945 -19.0263 259° West  Level FlightAware Approximate
Sun 08:38:00 AM 63.7719 -19.2865 259° West  Level FlightAware Approximate
Sun 08:39:00 AM 63.7489 -19.5463 259° West  Level FlightAware Approximate
Sun 08:40:00 AM 63.7257 -19.8059 259° West  Level FlightAware Approximate
Sun 08:41:00 AM 63.7022 -20.0650 259° West  Level FlightAware Approximate
Sun 08:42:00 AM 63.6782 -20.3237 258° West  Level FlightAware Approximate
Sun 08:43:00 AM 63.6537 -20.5820 258° West  Level FlightAware Approximate
Sun 08:44:00 AM 63.6287 -20.8398 258° West  Level FlightAware Approximate
Sun 08:45:00 AM 63.6033 -21.0972 258° West  Level FlightAware Approximate
Sun 08:46:00 AM 63.5774 -21.3541 257° West  Level FlightAware Approximate
Sun 08:47:00 AM 63.5511 -21.6105 257° West  Level FlightAware Approximate
Sun 08:48:00 AM 63.5243 -21.8664 257° West  Level FlightAware Approximate
Sun 08:49:00 AM 63.4970 -22.1219 257° West  Level FlightAware Approximate
Sun 08:50:00 AM 63.4693 -22.3769 256° West  Level FlightAware Approximate
Sun 08:51:00 AM 63.4412 -22.6313 256° West  Level FlightAware Approximate
Sun 08:52:00 AM 63.4126 -22.8853 256° West  Level FlightAware Approximate
Sun 08:53:00 AM 63.3835 -23.1388 256° West  Level FlightAware Approximate
Sun 08:54:00 AM 63.3540 -23.3917 256° West  Level FlightAware Approximate
Sun 08:55:00 AM 63.3241 -23.6441 255° West  Level FlightAware Approximate
Sun 08:56:00 AM 63.2937 -23.8960 255° West  Level FlightAware Approximate
Sun 08:57:00 AM 63.2628 -24.1474 255° West  Level FlightAware Approximate
Sun 08:58:00 AM 63.2315 -24.3982 255° West  Level FlightAware Approximate
Sun 08:59:00 AM 63.1998 -24.6484 254° West  Level FlightAware Approximate
Sun 09:00:00 AM 63.1676 -24.8982 254° West  Level FlightAware Approximate
Sun 09:01:00 AM 63.1351 -25.1473 254° West  Level FlightAware Approximate
Sun 09:02:00 AM 63.1020 -25.3959 254° West  Level FlightAware Approximate
Sun 09:03:00 AM 63.0685 -25.6439 254° West  Level FlightAware Approximate
Sun 09:04:00 AM 63.0346 -25.8914 253° West  Level FlightAware Approximate
Sun 09:05:00 AM 63.0003 -26.1383 253° West  Level FlightAware Approximate
Sun 09:06:00 AM 62.9655 -26.3846 253° West  Level FlightAware Approximate
Sun 09:07:00 AM 62.9304 -26.6303 253° West  Level FlightAware Approximate
Sun 09:08:00 AM 62.8947 -26.8754 252° West  Level FlightAware Approximate
Sun 09:09:00 AM 62.8587 -27.1199 252° West  Level FlightAware Approximate
Sun 09:10:00 AM 62.8222 -27.3638 252° West  Level FlightAware Approximate
Sun 09:11:00 AM 62.7854 -27.6071 252° West  Level FlightAware Approximate
Sun 09:12:00 AM 62.7481 -27.8498 252° West  Level FlightAware Approximate
Sun 09:13:00 AM 62.7103 -28.0919 251° West  Level FlightAware Approximate
Sun 09:14:00 AM 62.6722 -28.3333 251° West  Level FlightAware Approximate
Sun 09:15:00 AM 62.6337 -28.5742 251° West  Level FlightAware Approximate
Sun 09:16:00 AM 62.5947 -28.8144 251° West  Level FlightAware Approximate
Sun 09:17:00 AM 62.5553 -29.0539 250° West  Level FlightAware Approximate
Sun 09:18:00 AM 62.5155 -29.2929 250° West  Level FlightAware Approximate
Sun 09:19:00 AM 62.4753 -29.5311 250° West  Level FlightAware Approximate
Sun 09:20:00 AM 62.4348 -29.7688 250° West  Level FlightAware Approximate
Sun 09:21:00 AM 62.3938 -30.0058 250° West  Level FlightAware Approximate
Sun 09:22:00 AM 62.3524 -30.2421 249° West  Level FlightAware Approximate
Sun 09:23:00 AM 62.3106 -30.4778 249° West  Level FlightAware Approximate
Sun 09:24:00 AM 62.2684 -30.7129 249° West  Level FlightAware Approximate
Sun 09:25:00 AM 62.2258 -30.9473 249° West  Level FlightAware Approximate
Sun 09:26:00 AM 62.1828 -31.1810 249° West  Level FlightAware Approximate
Sun 09:27:00 AM 62.1394 -31.4140 248° West  Level FlightAware Approximate
Sun 09:28:00 AM 62.0957 -31.6464 248° West  Level FlightAware Approximate
Sun 09:29:00 AM 62.0515 -31.8781 248° West  Level FlightAware Approximate
Sun 09:30:00 AM 62.0070 -32.1091 248° West  Level FlightAware Approximate
Sun 09:31:00 AM 61.9620 -32.3395 248° West  Level FlightAware Approximate
Sun 09:32:00 AM 61.9167 -32.5691 247° West  Level FlightAware Approximate
Sun 09:33:00 AM 61.8710 -32.7981 247° West  Level FlightAware Approximate
Sun 09:34:00 AM 61.8250 -33.0264 247° West  Level FlightAware Approximate
Sun 09:35:00 AM 61.7785 -33.2541 247° West  Level FlightAware Approximate
Sun 09:36:00 AM 65.0000 -40.0000 241° Southwest 449 517 34,000  Level ETMS Enhanced Traffic Management System
Sun 09:56:00 AM 65.0000 -40.0000 241° Southwest 449 517 34,000  Level ETMS Enhanced Traffic Management System
Sun 09:56:52 AM 65.0000 -40.0000 241° Southwest 449 517 34,000  Level ETMS Enhanced Traffic Management System
Sun 10:17:00 AM 62.0000 -50.0000 236° Southwest 431 496 34,000  Level ETMS Enhanced Traffic Management System
Sun 10:52:24 AM 59.3333 -57.0667 229° Southwest 440 506 34,000  Level Gander Center
Sun 10:53:00 AM 59.2952 -57.1717 229° Southwest 431 496 34,000  Level FlightAware Transoceanic
Sun 10:53:24 AM 59.2500 -57.2500 228° Southwest 440 506 34,000  Level Gander Center
Sun 10:54:00 AM 59.2170 -57.3493 229° Southwest 431 496 34,000  Level FlightAware Transoceanic
Sun 10:54:24 AM 59.1667 -57.4167 226° Southwest 440 506 34,000  Level Gander Center
Sun 10:55:00 AM 59.1386 -57.5260 229° Southwest 431 496 34,000  Level FlightAware Transoceanic
Sun 10:55:24 AM 59.0500 -57.5333 207° Southwest 440 506 34,000  Level Gander Center
Sun 10:56:00 AM 59.0600 -57.7019 229° Southwest 431 496 34,000  Level FlightAware Transoceanic
Sun 10:56:24 AM 58.9333 -57.6667 211° Southwest 450 518 34,000  Level Gander Center
Sun 10:57:00 AM 58.9811 -57.8770 229° Southwest 431 496 34,000  Level FlightAware Transoceanic
Sun 10:57:24 AM 58.8333 -57.8000 215° Southwest 450 518 34,000  Level Gander Center
Sun 10:58:24 AM 58.7500 -57.9167 216° Southwest 450 518 34,000  Level Gander Center
Sun 10:59:24 AM 58.6333 -58.0500 211° Southwest 460 529 34,000  Level Gander Center
Sun 11:00:24 AM 58.5333 -58.1500 208° Southwest 430 495 34,000  Level Gander Center
Sun 11:01:24 AM 58.4500 -58.2500 212° Southwest 430 495 34,000  Level Gander Center
Sun 11:02:24 AM 58.3333 -58.3667 208° Southwest 430 495 34,000  Level Gander Center
Sun 11:03:24 AM 58.2333 -58.5000 215° Southwest 430 495 34,000  Level Gander Center
Sun 11:04:24 AM 58.1500 -58.6000 212° Southwest 430 495 34,000  Level Gander Center
Sun 11:05:24 AM 58.0500 -58.7333 215° Southwest 420 483 34,000  Level Gander Center
Sun 11:06:24 AM 57.9333 -58.8333 204° Southwest 420 483 34,000  Level Gander Center
Sun 11:07:24 AM 57.8333 -58.9333 208° Southwest 420 483 34,000  Level Gander Center
Sun 11:08:24 AM 57.7333 -59.0667 215° Southwest 420 483 34,000  Level Gander Center
Sun 11:09:24 AM 57.6333 -59.1667 208° Southwest 420 483 34,000  Level Gander Center
Sun 11:10:24 AM 57.5333 -59.2667 208° Southwest 420 483 34,000  Level Gander Center
Sun 11:11:24 AM 57.4167 -59.4000 212° Southwest 420 483 34,000  Level Gander Center
Sun 11:12:24 AM 57.3167 -59.4833 204° Southwest 430 495 34,000  Level Gander Center
Sun 11:13:24 AM 57.2333 -59.6167 221° Southwest 450 518 34,000  Level Gander Center
Sun 11:14:24 AM 57.1333 -59.7167 208° Southwest 430 495 34,000  Level Gander Center
Sun 11:15:24 AM 57.0333 -59.8333 212° Southwest 420 483 34,000  Level Gander Center
Sun 11:16:24 AM 56.9167 -59.9333 205° Southwest 420 483 34,000  Level Gander Center
Sun 11:17:24 AM 56.8167 -60.0667 216° Southwest 420 483 34,000  Level Gander Center
Sun 11:18:24 AM 56.7167 -60.1500 205° Southwest 400 460 34,000  Level Gander Center
Sun 11:19:24 AM 56.6167 -60.2500 209° Southwest 410 472 34,000  Level Gander Center
Sun 11:20:24 AM 56.5000 -60.3667 209° Southwest 410 472 34,000  Level Gander Center
Sun 11:21:24 AM 56.4167 -60.4667 214° Southwest 410 472 34,000 300 Level Gander Center
Sun 11:22:24 AM 56.3000 -60.5667 205° Southwest 410 472 34,600 700 Climbing Gander Center
Sun 11:23:24 AM 56.2000 -60.6833 213° Southwest 420 483 35,400 700 Climbing Gander Center
Sun 11:24:24 AM 56.1000 -60.7667 205° Southwest 430 495 36,000 300 Climbing Gander Center
Sun 11:25:24 AM 56.0000 -60.8667 209° Southwest 430 495 36,000  Level Gander Center
Sun 11:26:24 AM 55.9000 -60.9833 213° Southwest 420 483 36,000  Level Gander Center
Sun 11:27:24 AM 55.8000 -61.0667 205° Southwest 420 483 36,000  Level Gander Center
Sun 11:28:24 AM 55.7000 -61.1667 209° Southwest 420 483 36,000  Level Gander Center
Sun 11:29:24 AM 55.5833 -61.2833 209° Southwest 410 472 36,000  Level Gander Center
Sun 11:30:24 AM 55.4833 -61.3667 205° Southwest 420 483 36,000  Level Gander Center
Sun 11:31:24 AM 55.4000 -61.4667 214° Southwest 420 483 36,000  Level Gander Center
Sun 11:32:24 AM 55.2833 -61.5833 210° Southwest 410 472 36,000  Level Gander Center
Sun 11:33:24 AM 55.1833 -61.6667 205° Southwest 420 483 36,000  Level Gander Center
Sun 11:34:24 AM 55.0833 -61.7500 206° Southwest 420 483 36,000  Level Gander Center
Sun 11:35:24 AM 54.9833 -61.8333 206° Southwest 420 483 36,000  Level Gander Center
Sun 11:36:24 AM 54.8833 -61.9500 214° Southwest 410 472 36,000  Level Gander Center
Sun 11:37:24 AM 54.7833 -62.0333 206° Southwest 420 483 36,000  Level Gander Center
Sun 11:38:24 AM 54.6833 -62.1500 214° Southwest 420 483 36,000  Level Gander Center
Sun 11:39:24 AM 54.5833 -62.2333 206° Southwest 410 472 36,000  Level Gander Center
Sun 11:40:24 AM 54.4667 -62.3167 203° Southwest 410 472 36,000  Level Gander Center
Sun 11:41:24 AM 54.3833 -62.4000 210° Southwest 410 472 36,000  Level Gander Center
Sun 11:42:24 AM 54.2833 -62.4833 206° Southwest 420 483 36,000  Level Gander Center
Sun 11:43:24 AM 54.1500 -62.6000 207° Southwest 410 472 36,000  Level Gander Center
Sun 11:44:24 AM 54.0667 -62.6833 210° Southwest 410 472 36,000  Level Gander Center
Sun 11:45:24 AM 53.9500 -62.7833 207° Southwest 410 472 36,000  Level Gander Center
Sun 11:46:24 AM 53.8667 -62.8667 211° Southwest 410 472 36,000  Level Gander Center
Sun 11:47:24 AM 53.7500 -62.9500 203° Southwest 410 472 36,000  Level Gander Center
Sun 11:48:24 AM 53.6667 -63.0333 211° Southwest 400 460 36,000  Level Gander Center
Sun 11:49:24 AM 53.5500 -63.1333 207° Southwest 400 460 36,000  Level Gander Center
Sun 11:50:24 AM 53.4667 -63.2167 211° Southwest 410 472 36,000  Level Gander Center
Sun 11:51:24 AM 53.3667 -63.3000 206° Southwest 410 472 36,000  Level Gander Center
Sun 11:52:24 AM 53.2500 -63.3833 203° Southwest 410 472 36,000  Level Gander Center
Sun 11:53:24 AM 53.1667 -63.4500 206° Southwest 410 472 36,000  Level Gander Center
Sun 11:54:24 AM 53.0500 -63.5667 211° Southwest 410 472 36,000  Level Gander Center
Sun 11:55:24 AM 52.9500 -63.6333 202° Southwest 410 472 36,000  Level Gander Center
Sun 11:56:24 AM 52.8333 -63.7167 203° Southwest 420 483 36,000  Level Gander Center
Sun 11:57:24 AM 52.7333 -63.8167 211° Southwest 420 483 36,000  Level Gander Center
Sun 11:58:24 AM 52.6500 -63.9000 211° Southwest 410 472 36,000  Level Gander Center
Sun 11:59:24 AM 52.5333 -63.9833 203° Southwest 410 472 36,000  Level Gander Center
Sun 12:00:24 PM 52.4500 -64.0500 206° Southwest 410 472 36,000  Level Gander Center
Sun 12:01:24 PM 52.3333 -64.1500 208° Southwest 410 472 36,000  Level Gander Center
Sun 12:02:24 PM 52.2333 -64.2333 207° Southwest 410 472 36,000  Level Gander Center
Sun 12:03:24 PM 52.1167 -64.3000 199° South 410 472 36,000  Level Gander Center
Sun 12:04:24 PM 52.0333 -64.3833 212° Southwest 410 472 36,000  Level Gander Center
Sun 12:05:24 PM 51.9333 -64.4500 202° Southwest 410 472 36,000  Level Gander Center
Sun 12:06:24 PM 51.8333 -64.5500 212° Southwest 410 472 36,000  Level Gander Center
Sun 12:07:24 PM 51.7333 -64.6333 207° Southwest 410 472 36,000  Level Gander Center
Sun 12:08:24 PM 51.6000 -64.7000 197° South 410 472 36,000  Level Gander Center
Sun 12:09:24 PM 51.5167 -64.7833 212° Southwest 400 460 36,000  Level Gander Center
Sun 12:10:24 PM 51.4167 -64.8833 212° Southwest 410 472 36,000  Level Gander Center
Sun 12:11:24 PM 51.3167 -64.9500 203° Southwest 410 472 36,000  Level Gander Center
Sun 12:12:24 PM 51.2167 -65.0167 203° Southwest 400 460 36,000  Level Gander Center
Sun 12:13:24 PM 51.1167 -65.1000 208° Southwest 410 472 36,000  Level Gander Center
Sun 12:14:24 PM 51.0000 -65.1833 204° Southwest 400 460 36,000  Level Gander Center
Sun 12:15:24 PM 50.9000 -65.2667 208° Southwest 410 472 36,000  Level Gander Center
Sun 12:16:24 PM 50.8000 -65.3333 203° Southwest 400 460 36,000  Level Gander Center
Sun 12:17:24 PM 50.7000 -65.4000 203° Southwest 400 460 36,000  Level Gander Center
Sun 12:18:24 PM 50.6000 -65.4667 203° Southwest 400 460 36,000  Level Gander Center
Sun 12:19:24 PM 50.4833 -65.5667 209° Southwest 400 460 36,000  Level Gander Center
Sun 12:20:24 PM 50.3833 -65.6333 203° Southwest 400 460 36,000  Level Gander Center
Sun 12:21:24 PM 50.3000 -65.7000 207° Southwest 400 460 36,000  Level Gander Center
Sun 12:22:24 PM 50.2000 -65.7833 208° Southwest 400 460 36,000  Level Gander Center
Sun 12:23:24 PM 50.1000 -65.8500 203° Southwest 410 472 36,000  Level Gander Center
Sun 12:24:24 PM 50.0000 -65.9333 208° Southwest 410 472 36,000  Level Gander Center
Sun 12:25:24 PM 49.8833 -66.0000 200° South 400 460 36,000  Level Gander Center
Sun 12:26:24 PM 49.7833 -66.0667 203° Southwest 410 472 36,000  Level Gander Center
Sun 12:27:24 PM 49.6833 -66.1500 208° Southwest 400 460 36,000  Level Gander Center
Sun 12:28:24 PM 49.5833 -66.2333 208° Southwest 400 460 36,000  Level Gander Center
Sun 12:29:24 PM 49.4667 -66.3000 200° South 410 472 36,000  Level Gander Center
Sun 12:30:24 PM 49.3667 -66.3667 203° Southwest 400 460 36,000  Level Gander Center
Sun 12:31:24 PM 49.2833 -66.4333 208° Southwest 400 460 36,000  Level Gander Center
Sun 12:32:24 PM 49.1667 -66.5000 200° South 400 460 36,000  Level Gander Center
Sun 12:33:24 PM 49.0833 -66.5667 208° Southwest 400 460 36,000  Level Gander Center
Sun 12:34:24 PM 48.9667 -66.6500 205° Southwest 400 460 36,000  Level Gander Center
Sun 12:35:24 PM 48.8667 -66.7167 204° Southwest 400 460 36,000  Level Gander Center
Sun 12:36:24 PM 48.7667 -66.7833 204° Southwest 400 460 36,000  Level Gander Center
Sun 12:37:24 PM 48.6667 -66.8500 204° Southwest 400 460 36,000  Level Gander Center
Sun 12:38:24 PM 48.5500 -66.9333 205° Southwest 400 460 36,000  Level Gander Center
Sun 12:39:24 PM 48.4500 -67.0000 204° Southwest 400 460 36,000  Level Gander Center
Sun 12:40:24 PM 48.3667 -67.0667 208° Southwest 400 460 36,000  Level Gander Center
Sun 12:41:24 PM 48.2667 -67.1333 204° Southwest 400 460 36,000  Level Gander Center
Sun 12:42:24 PM 48.1667 -67.2000 204° Southwest 390 449 36,000  Level Gander Center
Sun 12:43:24 PM 48.0500 -67.2667 201° Southwest 390 449 36,000  Level Gander Center
Sun 12:44:24 PM 47.9500 -67.3167 199° South 390 449 36,000  Level Gander Center
Sun 12:45:24 PM 47.8667 -67.4167 219° Southwest 390 449 36,000  Level Gander Center
Sun 12:46:24 PM 47.7667 -67.4667 199° South 390 449 36,000  Level Gander Center
Sun 12:51:44 PM 47.3164 -67.7517 203° Southwest 406 467 36,000  Level FlightAware ADS-B
Sun 12:53:57 PM 46.9940 -67.9566 204° Southwest 407 468 36,000  Level FlightAware ADS-B
Sun 12:54:35 PM 46.9328 -67.9954 203° Southwest 405 466 36,000  Level FlightAware ADS-B
Sun 12:55:08 PM 46.8763 -68.0308 203° Southwest 405 466 36,000  Level FlightAware ADS-B
Sun 12:55:42 PM 46.8137 -68.0700 203° Southwest 404 465 36,000  Level FlightAware ADS-B
Sun 12:56:12 PM 46.7624 -68.0990 198° South 409 471 36,000  Level FlightAware ADS-B
Sun 12:57:04 PM 46.6705 -68.1371 197° South 408 470 36,000  Level FlightAware ADS-B
Sun 12:57:35 PM 46.6108 -68.1625 196° South 409 471 36,000  Level FlightAware ADS-B
Sun 12:58:07 PM 46.5541 -68.1864 196° South 410 472 36,000  Level FlightAware ADS-B
Sun 12:58:39 PM 46.4956 -68.2125 202° Southwest 403 464 36,000  Level FlightAware ADS-B
Sun 12:58:55 PM 46.4705 -68.2325 213° Southwest 390 449 36,000  Level FlightAware ADS-B
Sun 12:59:36 PM 46.4083 -68.2890 211° Southwest 394 453 36,000  Level FlightAware ADS-B
Sun 01:00:27 PM 46.3316 -68.3568 212° Southwest 395 455 36,000  Level FlightAware ADS-B
Sun 01:01:03 PM 46.2707 -68.4110 212° Southwest 395 455 36,000  Level FlightAware ADS-B
Sun 01:01:37 PM 46.2204 -68.4557 212° Southwest 395 455 36,000  Level FlightAware ADS-B
Sun 01:02:15 PM 46.1600 -68.5091 212° Southwest 396 456 36,000  Level FlightAware ADS-B
Sun 01:02:45 PM 46.1177 -68.5463 212° Southwest 396 456 36,000  Level FlightAware ADS-B
Sun 01:03:26 PM 46.0624 -68.5951 212° Southwest 396 456 36,000  Level FlightAware ADS-B
Sun 01:04:05 PM 45.9870 -68.6610 211° Southwest 396 456 36,000  Level FlightAware ADS-B
Sun 01:04:36 PM 45.9391 -68.7031 212° Southwest 396 456 36,000  Level FlightAware ADS-B
Sun 01:05:06 PM 45.8935 -68.7427 211° Southwest 397 457 36,000  Level FlightAware ADS-B
Sun 01:05:36 PM 45.8454 -68.7847 212° Southwest 396 456 36,000  Level FlightAware ADS-B
Sun 01:06:06 PM 45.7978 -68.8262 211° Southwest 395 455 36,000  Level FlightAware ADS-B
Sun 01:06:37 PM 45.7587 -68.8602 211° Southwest 393 452 36,000  Level FlightAware ADS-B
Sun 01:07:17 PM 45.6901 -68.9195 211° Southwest 391 450 36,000  Level FlightAware ADS-B
Sun 01:07:47 PM 45.6522 -68.9524 211° Southwest 391 450 36,000  Level FlightAware ADS-B
Sun 01:08:21 PM 45.6022 -68.9957 211° Southwest 392 451 36,000  Level FlightAware ADS-B (YSBK / BWU)
Sun 01:08:54 PM 45.5434 -69.0463 211° Southwest 393 452 36,000  Level FlightAware ADS-B
Sun 01:09:27 PM 45.4917 -69.0905 211° Southwest 393 452 36,000  Level FlightAware ADS-B
Sun 01:09:58 PM 45.4393 -69.1355 211° Southwest 393 452 36,000  Level FlightAware ADS-B
Sun 01:10:28 PM 45.3945 -69.1737 211° Southwest 393 452 36,000  Level FlightAware ADS-B
Sun 01:11:00 PM 45.3428 -69.2178 211° Southwest 392 451 36,000  Level FlightAware ADS-B (YSBK / BWU)
Sun 01:11:33 PM 45.2932 -69.2600 211° Southwest 391 450 36,000  Level FlightAware ADS-B (YSBK / BWU)
Sun 01:12:08 PM 45.2381 -69.3067 211° Southwest 391 450 36,000  Level FlightAware ADS-B
Sun 01:12:42 PM 45.1858 -69.3512 211° Southwest 389 448 36,000  Level FlightAware ADS-B
Sun 01:13:12 PM 45.1404 -69.3896 211° Southwest 388 447 36,000  Level FlightAware ADS-B
Sun 01:13:43 PM 45.1000 -69.4237 211° Southwest 388 447 36,000  Level FlightAware ADS-B (YSBK / BWU)
Sun 01:14:14 PM 45.0431 -69.4718 211° Southwest 390 449 36,000  Level FlightAware ADS-B
Sun 01:14:45 PM 44.9964 -69.5110 211° Southwest 391 450 36,000  Level FlightAware ADS-B
Sun 01:15:18 PM 44.9437 -69.5552 211° Southwest 392 451 36,000  Level FlightAware ADS-B
Sun 01:15:49 PM 44.8977 -69.5936 211° Southwest 393 452 36,000  Level FlightAware ADS-B
Sun 01:16:19 PM 44.8481 -69.6350 211° Southwest 391 450 36,000  Level FlightAware ADS-B
Sun 01:16:51 PM 44.7990 -69.6758 211° Southwest 387 445 36,000  Level FlightAware ADS-B
Sun 01:17:22 PM 44.7527 -69.7143 211° Southwest 383 441 36,000  Level FlightAware ADS-B
Sun 01:18:02 PM 44.6904 -69.7662 211° Southwest 384 442 36,000  Level FlightAware ADS-B
Sun 01:18:38 PM 44.6356 -69.8118 211° Southwest 386 444 36,000  Level FlightAware ADS-B
Sun 01:19:09 PM 44.5884 -69.8507 210° Southwest 385 443 36,000  Level FlightAware ADS-B (YSBK / BWU)
Sun 01:19:40 PM 44.5408 -69.8899 211° Southwest 384 442 36,000  Level FlightAware ADS-B
Sun 01:20:38 PM 44.4899 -69.9317 211° Southwest 384 442 36,000  Level FlightAware ADS-B
Sun 01:21:13 PM 44.3988 -70.0064 210° Southwest 384 442 36,000  Level FlightAware ADS-B
Sun 01:21:46 PM 44.3485 -70.0476 210° Southwest 384 442 36,000  Level FlightAware ADS-B
Sun 01:22:16 PM 44.3260 -70.0660 211° Southwest 384 442 36,000  Level FlightAware ADS-B
Sun 01:22:49 PM 44.2518 -70.1265 210° Southwest 386 444 36,000  Level FlightAware ADS-B
Sun 01:22:55 PM 44.2419 -70.1346 210° Southwest 386 444 36,000  Level FlightAware ADS-B
Sun 01:23:15 PM 44.2124 -70.1586 210° Southwest 387 445 36,000  Level FlightAware ADS-B
Sun 01:23:25 PM 44.1959 -70.1720 211° Southwest 380 437 36,000  Level FlightAware ADS-B
Sun 01:23:58 PM 44.1458 -70.2128 210° Southwest 388 447 36,000  Level FlightAware ADS-B
Sun 01:24:35 PM 44.0870 -70.2603 210° Southwest 388 447 36,000  Level FlightAware ADS-B
Sun 01:25:06 PM 44.0405 -70.2980 210° Southwest 388 447 36,000  Level FlightAware ADS-B
Sun 01:26:12 PM 43.9375 -70.3811 210° Southwest 390 449 36,000  Level FlightAware ADS-B
Sun 01:26:46 PM 43.8853 -70.4231 210° Southwest 389 448 36,000  Level FlightAware ADS-B
Sun 01:27:16 PM 43.8379 -70.4610 210° Southwest 389 448 36,000  Level FlightAware ADS-B
Sun 01:27:46 PM 43.7906 -70.4988 210° Southwest 388 447 36,000  Level FlightAware ADS-B
Sun 01:28:27 PM 43.7279 -70.5487 210° Southwest 390 449 36,000  Level FlightAware ADS-B
Sun 01:29:01 PM 43.6743 -70.5916 210° Southwest 389 448 36,000  Level FlightAware ADS-B (EPKK / KRK)
Sun 01:29:36 PM 43.6214 -70.6337 210° Southwest 387 445 36,000  Level FlightAware ADS-B (EPKK / KRK)
Sun 01:29:47 PM 43.6039 -70.6476 211° Southwest 379 436 36,000  Level FlightAware ADS-B
Sun 01:30:17 PM 43.5577 -70.6842 210° Southwest 386 444 36,000  Level FlightAware ADS-B (EPKK / KRK)
Sun 01:30:47 PM 43.5126 -70.7199 211° Southwest 378 435 36,000  Level FlightAware ADS-B
Sun 01:31:21 PM 43.4575 -70.7636 210° Southwest 389 448 36,000  Level FlightAware ADS-B (EPKK / KRK)
Sun 01:31:24 PM 43.4550 -70.7660 210° Southwest 390 449 36,000  Level FlightAware ADS-B
Sun 01:31:51 PM 43.4125 -70.7991 210° Southwest 391 450 36,000  Level FlightAware ADS-B (EPKK / KRK)
Sun 01:32:21 PM 43.3663 -70.8354 210° Southwest 391 450 36,000  Level FlightAware ADS-B (EPKK / KRK)
Sun 01:32:29 PM 43.3540 -70.8450 210° Southwest 392 451 36,000  Level FlightAware ADS-B
Sun 01:32:53 PM 43.3148 -70.8759 210° Southwest 392 451 36,000 -421 Level FlightAware ADS-B (EPKK / KRK)
Sun 01:33:26 PM 43.2627 -70.9169 210° Southwest 389 448 35,600 -600 Descending FlightAware ADS-B
Sun 01:34:03 PM 43.2045 -70.9621 210° Southwest 383 441 35,300 -507 Descending FlightAware ADS-B (EPKK / KRK)
Sun 01:34:37 PM 43.1527 -71.0026 210° Southwest 388 447 35,000 -563 Descending FlightAware ADS-B
Sun 01:35:07 PM 43.1060 -71.0391 210° Southwest 392 451 34,700 -600 Descending FlightAware ADS-B
Sun 01:35:47 PM 43.0423 -71.0888 210° Southwest 390 449 34,300 -592 Descending FlightAware ADS-B
Sun 01:36:18 PM 42.9949 -71.1255 210° Southwest 398 458 34,000 -295 Descending FlightAware ADS-B (EPKK / KRK)
Sun 01:36:48 PM 42.9473 -71.1623 210° Southwest 395 455 34,000  Level FlightAware ADS-B (EPKK / KRK)
Sun 01:37:18 PM 42.8968 -71.2015 210° Southwest 397 457 34,000  Level FlightAware ADS-B (EPKK / KRK)
Sun 01:37:49 PM 42.8485 -71.2389 210° Southwest 396 456 34,000  Level FlightAware ADS-B (EPKK / KRK)
Sun 01:38:19 PM 42.7992 -71.2768 210° Southwest 397 457 34,000  Level FlightAware ADS-B (EPKK / KRK)
Sun 01:38:50 PM 42.7516 -71.3134 210° Southwest 396 456 34,000  Level FlightAware ADS-B (EPKK / KRK)
Sun 01:39:27 PM 42.6917 -71.3595 210° Southwest 391 450 34,000  Level FlightAware ADS-B
Sun 01:39:54 PM 42.6483 -71.3926 210° Southwest 391 450 34,000  Level FlightAware ADS-B
Sun 01:40:25 PM 42.5986 -71.4306 210° Southwest 389 448 34,000  Level FlightAware ADS-B
Sun 01:40:56 PM 42.5492 -71.4683 210° Southwest 389 448 34,000  Level FlightAware ADS-B
Sun 01:41:26 PM 42.5004 -71.5056 210° Southwest 392 451 34,000  Level FlightAware ADS-B
Sun 01:41:56 PM 42.4521 -71.5423 210° Southwest 391 450 34,000  Level FlightAware ADS-B
Sun 01:42:27 PM 42.4035 -71.5792 210° Southwest 390 449 34,000  Level FlightAware ADS-B
Sun 01:42:56 PM 42.3560 -71.6152 210° Southwest 386 444 34,000  Level FlightAware ADS-B
Sun 01:43:26 PM 42.3092 -71.6504 209° Southwest 390 449 34,000  Level FlightAware ADS-B
Sun 01:43:56 PM 42.2614 -71.6865 209° Southwest 389 448 34,000  Level FlightAware ADS-B
Sun 01:44:32 PM 42.2083 -71.7266 209° Southwest 387 445 34,000  Level FlightAware ADS-B (KSNC)
Sun 01:45:07 PM 42.1524 -71.7686 209° Southwest 386 444 34,000  Level FlightAware ADS-B (ESTA / AGH)
Sun 01:45:46 PM 42.0902 -71.8157 211° Southwest 379 436 34,000  Level FlightAware ADS-B
Sun 01:46:26 PM 42.0329 -71.8708 216° Southwest 379 436 34,000  Level FlightAware ADS-B
Sun 01:47:00 PM 41.9859 -71.9166 216° Southwest 382 440 34,000  Level FlightAware ADS-B (KSNC)
Sun 01:47:36 PM 41.9333 -71.9675 216° Southwest 383 441 34,000  Level FlightAware ADS-B
Sun 01:48:10 PM 41.8845 -72.0148 216° Southwest 383 441 34,000  Level FlightAware ADS-B (KSNC)
Sun 01:48:40 PM 41.8417 -72.0561 216° Southwest 383 441 34,000  Level FlightAware ADS-B
Sun 01:49:15 PM 41.7931 -72.1030 216° Southwest 383 441 34,000  Level FlightAware ADS-B (KSNC)
Sun 01:50:05 PM 41.7199 -72.1733 216° Southwest 379 436 34,000  Level FlightAware ADS-B (KSNC)
Sun 01:50:36 PM 41.6766 -72.2150 216° Southwest 378 435 34,000  Level FlightAware ADS-B (KSNC)
Sun 01:51:21 PM 41.6124 -72.2766 216° Southwest 381 438 34,000  Level FlightAware ADS-B (KSNC)
Sun 01:51:52 PM 41.5687 -72.3184 216° Southwest 382 440 34,000  Level FlightAware ADS-B (KSNC)
Sun 01:52:38 PM 41.5022 -72.3811 213° Southwest 388 447 34,000  Level FlightAware ADS-B (KSNC)
Sun 01:53:09 PM 41.4711 -72.4076 212° Southwest 392 451 34,000  Level FlightAware ADS-B (KSNC)
Sun 01:53:49 PM 41.3937 -72.4732 213° Southwest 390 449 34,000  Level FlightAware ADS-B (KSNC)
Sun 01:54:20 PM 41.3487 -72.5117 213° Southwest 391 450 34,000  Level FlightAware ADS-B (KSNC)
Sun 01:55:00 PM 41.2864 -72.5652 213° Southwest 390 449 34,000  Level FlightAware ADS-B (KSNC)
Sun 01:55:53 PM 41.2068 -72.6335 213° Southwest 389 448 34,000  Level FlightAware ADS-B (KSNC)
Sun 01:56:34 PM 41.1454 -72.6860 213° Southwest 391 450 34,000  Level FlightAware ADS-B (KSNC)
Sun 01:57:19 PM 41.0760 -72.7453 213° Southwest 391 450 34,000  Level FlightAware ADS-B (KSNC)
Sun 01:57:51 PM 41.0263 -72.7876 213° Southwest 390 449 34,000  Level FlightAware ADS-B (KSNC)
Sun 01:58:21 PM 40.9853 -72.8225 213° Southwest 390 449 34,000  Level FlightAware ADS-B (KSNC)
Sun 01:58:54 PM 40.9347 -72.8655 213° Southwest 391 450 34,000  Level FlightAware ADS-B (KSNC)
Sun 01:59:34 PM 40.8706 -72.9198 213° Southwest 392 451 34,000  Level FlightAware ADS-B (KSNC)
Sun 02:00:11 PM 40.8138 -72.9678 213° Southwest 395 455 34,000  Level FlightAware ADS-B (KSNC)
Sun 02:00:41 PM 40.7670 -73.0073 213° Southwest 395 455 34,000  Level FlightAware ADS-B (KSNC)
Sun 02:01:11 PM 40.7224 -73.0448 213° Southwest 395 455 34,000  Level FlightAware ADS-B (KSNC)
Sun 02:01:42 PM 40.6731 -73.0862 213° Southwest 395 455 34,000  Level FlightAware ADS-B (KSNC)
Sun 02:02:12 PM 40.6273 -73.1246 213° Southwest 396 456 34,000  Level FlightAware ADS-B (KSNC)
Sun 02:02:43 PM 40.5833 -73.1615 213° Southwest 395 455 34,000  Level FlightAware ADS-B (KSNC)
Sun 02:03:23 PM 40.5186 -73.2155 213° Southwest 394 453 34,000  Level FlightAware ADS-B (KSNC)
Sun 02:03:56 PM 40.4682 -73.2576 212° Southwest 393 452 34,000  Level FlightAware ADS-B (KSNC)
Sun 02:04:12 PM 40.4436 -73.2780 213° Southwest 387 445 34,000  Level FlightAware ADS-B (KWWD)
Sun 02:04:42 PM 40.3975 -73.3164 213° Southwest 385 443 34,000  Level FlightAware ADS-B (KWWD)
Sun 02:05:14 PM 40.3476 -73.3578 212° Southwest 392 451 34,000  Level FlightAware ADS-B
Sun 02:05:48 PM 40.2962 -73.4005 212° Southwest 393 452 34,000  Level FlightAware ADS-B (KSNC)
Sun 02:05:53 PM 40.2888 -73.4067 213° Southwest 387 445 34,000  Level FlightAware ADS-B (KWWD)
Sun 02:06:05 PM 40.2704 -73.4219 213° Southwest 386 444 34,000  Level FlightAware ADS-B (KWWD)
Sun 02:06:44 PM 40.2102 -73.4716 212° Southwest 393 452 34,000  Level FlightAware ADS-B (KSNC)
Sun 02:06:53 PM 40.1964 -73.4830 213° Southwest 386 444 34,000  Level FlightAware ADS-B (KWWD)
Sun 02:06:58 PM 40.1889 -73.4892 213° Southwest 386 444 34,000  Level FlightAware ADS-B (KWWD)
Sun 02:07:13 PM 40.1650 -73.5088 213° Southwest 385 443 34,000  Level FlightAware ADS-B (KWWD)
Sun 02:07:52 PM 40.1063 -73.5573 212° Southwest 393 452 34,000  Level FlightAware ADS-B
Sun 02:08:12 PM 40.0769 -73.5816 212° Southwest 394 453 34,000  Level FlightAware ADS-B (KSNC)
Sun 02:08:21 PM 40.0604 -73.5951 212° Southwest 395 455 34,000  Level FlightAware ADS-B
Sun 02:08:25 PM 40.0567 -73.5981 213° Southwest 388 447 34,000  Level FlightAware ADS-B (KWWD)
Sun 02:08:45 PM 40.0238 -73.6251 213° Southwest 388 447 34,000  Level FlightAware ADS-B (KWWD)
Sun 02:09:18 PM 39.9720 -73.6677 212° Southwest 397 457 34,000  Level FlightAware ADS-B (KSNC)
Sun 02:09:54 PM 39.9170 -73.7128 212° Southwest 397 457 34,000  Level FlightAware ADS-B (KWWD)
Sun 02:10:30 PM 39.8611 -73.7583 212° Southwest 398 458 34,000  Level FlightAware ADS-B (KWWD)
Sun 02:11:04 PM 39.8077 -73.8019 212° Southwest 397 457 34,000  Level FlightAware ADS-B (KWWD)
Sun 02:11:42 PM 39.7493 -73.8493 212° Southwest 397 457 34,000  Level FlightAware ADS-B (KWWD)
Sun 02:12:15 PM 39.6986 -73.8905 212° Southwest 398 458 34,000  Level FlightAware ADS-B (KWWD)
Sun 02:12:54 PM 39.6374 -73.9401 212° Southwest 399 459 34,000  Level FlightAware ADS-B (KWWD)
Sun 02:13:30 PM 39.5806 -73.9860 212° Southwest 401 461 34,000  Level FlightAware ADS-B (KWWD)
Sun 02:14:05 PM 39.5260 -74.0300 212° Southwest 401 461 34,000  Level FlightAware ADS-B (KWWD)
Sun 02:14:41 PM 39.4691 -74.0759 212° Southwest 400 460 34,000  Level FlightAware ADS-B (KWWD)
Sun 02:15:15 PM 39.4163 -74.1185 212° Southwest 401 461 34,000  Level FlightAware ADS-B (KWWD)
Sun 02:15:46 PM 39.3685 -74.1568 212° Southwest 402 463 34,000  Level FlightAware ADS-B (KWWD)
Sun 02:16:23 PM 39.3080 -74.2053 212° Southwest 401 461 34,000  Level FlightAware ADS-B
Sun 02:16:56 PM 39.2567 -74.2464 212° Southwest 397 457 34,000  Level FlightAware ADS-B (KWWD)
Sun 02:17:36 PM 39.1927 -74.2975 212° Southwest 398 458 34,000  Level FlightAware ADS-B (KWWD)
Sun 02:18:17 PM 39.1297 -74.3475 212° Southwest 399 459 34,000  Level FlightAware ADS-B (KWWD)
Sun 02:18:55 PM 39.0674 -74.3971 213° Southwest 401 461 34,000  Level FlightAware ADS-B (KWWD)
Sun 02:19:26 PM 39.0174 -74.4367 212° Southwest 401 461 34,000  Level FlightAware ADS-B (KWWD)
Sun 02:20:05 PM 38.9541 -74.4868 212° Southwest 401 461 34,000  Level FlightAware ADS-B (KWWD)
Sun 02:20:38 PM 38.9005 -74.5292 212° Southwest 402 463 34,000  Level FlightAware ADS-B (KWWD)
Sun 02:21:15 PM 38.8425 -74.5748 212° Southwest 400 460 34,000  Level FlightAware ADS-B (KWWD)
Sun 02:21:46 PM 38.7916 -74.6149 212° Southwest 401 461 34,000  Level FlightAware ADS-B (KWWD)
Sun 02:22:23 PM 38.7322 -74.6617 212° Southwest 403 464 34,000  Level FlightAware ADS-B (KWWD)
Sun 02:22:58 PM 38.7143 -74.6758 212° Southwest 409 471 34,000  Level FlightAware ADS-B
Sun 02:23:31 PM 38.6226 -74.7476 212° Southwest 400 460 34,000  Level FlightAware ADS-B (KWWD)
Sun 02:24:06 PM 38.5675 -74.7906 212° Southwest 399 459 34,000  Level FlightAware ADS-B (KWWD)
Sun 02:24:47 PM 38.5018 -74.8419 212° Southwest 398 458 34,000  Level FlightAware ADS-B (KWWD)
Sun 02:25:28 PM 38.4369 -74.8925 212° Southwest 399 459 34,000  Level FlightAware ADS-B (KWWD)
Sun 02:26:07 PM 38.3737 -74.9415 212° Southwest 400 460 34,000  Level FlightAware ADS-B (KWWD)
Sun 02:26:47 PM 38.3092 -74.9914 212° Southwest 401 461 34,000  Level FlightAware ADS-B (KWWD)
Sun 02:27:17 PM 38.2610 -75.0288 212° Southwest 402 463 34,000  Level FlightAware ADS-B (KWWD)
Sun 02:27:56 PM 38.1973 -75.0779 212° Southwest 402 463 34,000  Level FlightAware ADS-B (KWWD)
Sun 02:28:27 PM 38.1483 -75.1157 212° Southwest 402 463 34,000  Level FlightAware ADS-B (KWWD)
Sun 02:28:57 PM 38.1010 -75.1522 211° Southwest 412 474 34,000  Level FlightAware ADS-B (KWWD)
Sun 02:29:28 PM 38.0488 -75.1922 211° Southwest 411 473 34,000  Level FlightAware ADS-B (KWWD)
Sun 02:29:58 PM 38.0001 -75.2296 211° Southwest 413 475 34,000  Level FlightAware ADS-B (KWWD)
Sun 02:30:29 PM 37.9496 -75.2682 211° Southwest 411 473 34,000  Level FlightAware ADS-B (KWWD)
Sun 02:31:02 PM 37.8960 -75.3093 211° Southwest 410 472 34,000 87 Level FlightAware ADS-B (KWWD)
Sun 02:31:38 PM 37.8371 -75.3540 211° Southwest 392 451 34,100  Climbing FlightAware ADS-B (KWWD)
Sun 02:32:18 PM 37.7772 -75.3996 211° Southwest 393 452 34,000 -86 Descending FlightAware ADS-B (KWWD)
Sun 02:32:48 PM 37.7313 -75.4344 211° Southwest 398 458 34,000  Level FlightAware ADS-B (KWWD)
Sun 02:33:23 PM 37.6717 -75.4801 211° Southwest 412 474 34,000  Level FlightAware ADS-B (KWWD)
Sun 02:33:57 PM 37.6169 -75.5218 211° Southwest 410 472 34,000  Level FlightAware ADS-B (KWWD)
Sun 02:34:27 PM 37.5684 -75.5581 212° Southwest 396 456 34,000  Level FlightAware ADS-B (KWWD)
Sun 02:35:06 PM 37.5067 -75.6048 212° Southwest 398 458 34,000  Level FlightAware ADS-B (KWWD)
Sun 02:35:38 PM 37.4541 -75.6443 211° Southwest 416 479 34,000 -97 Level FlightAware ADS-B (KWWD)
Sun 02:36:08 PM 37.4037 -75.6824 211° Southwest 416 479 33,900 -295 Descending FlightAware ADS-B (KWWD)
Sun 02:36:39 PM 37.3542 -75.7195 211° Southwest 410 472 33,700 -514 Descending FlightAware ADS-B (KWWD)
Sun 02:37:18 PM 37.2902 -75.7676 212° Southwest 400 460 33,300 -623 Descending FlightAware ADS-B (KWWD)
Sun 02:37:56 PM 37.2281 -75.8142 211° Southwest 414 476 32,900 -696 Descending FlightAware ADS-B (KWWD)
Sun 02:38:27 PM 37.1775 -75.8519 211° Southwest 408 470 32,500 -592 Descending FlightAware ADS-B (KWWD)
Sun 02:39:07 PM 37.1135 -75.8994 211° Southwest 395 455 32,200 -385 Descending FlightAware ADS-B (KWWD)
Sun 02:39:45 PM 37.0547 -75.9432 211° Southwest 395 455 32,000 -167 Descending FlightAware ADS-B (KWWD)
Sun 02:40:19 PM 37.0007 -75.9834 211° Southwest 398 458 32,000  Level FlightAware ADS-B (KWWD)
Sun 02:40:52 PM 36.9494 -76.0217 211° Southwest 398 458 32,000  Level FlightAware ADS-B (KWWD)
Sun 02:42:43 PM 36.7726 -76.1523 211° Southwest 392 451 32,000  Level FlightAware ADS-B (KWWD)
Sun 02:43:30 PM 36.7158 -76.1942 210° Southwest 396 456 32,000  Level Washington Center
Sun 02:43:56 PM 36.6577 -76.2368 211° Southwest 395 455 32,000  Level FlightAware ADS-B (KWWD)
Sun 02:44:33 PM 36.6203 -76.2633 210° Southwest 396 456 32,000  Level Washington Center
Sun 02:45:30 PM 36.5110 -76.3443 211° Southwest 394 453 32,000  Level FlightAware ADS-B (KWWD)
Sun 02:45:34 PM 36.5264 -76.3317 210° Southwest 392 451 32,000  Level Washington Center
Sun 02:46:38 PM 36.4139 -76.4139 210° Southwest 392 451 32,000  Level Washington Center
Sun 02:47:40 PM 36.3194 -76.4822 210° Southwest 392 451 32,000  Level Washington Center
Sun 02:48:40 PM 36.2225 -76.5528 210° Southwest 400 460 32,000  Level Washington Center
Sun 02:49:00 PM 36.1457 -76.6077 210° Southwest  Level FlightAware Approximate
Sun 02:49:45 PM 36.1225 -76.6244 210° Southwest 412 474 32,000  Level Washington Center
Sun 02:50:45 PM 36.0225 -76.6972 210° Southwest 412 474 32,000  Level Washington Center
Sun 02:51:49 PM 35.9025 -76.7839 210° Southwest 414 476 32,000  Level Washington Center
Sun 02:52:50 PM 35.8033 -76.8550 210° Southwest 416 479 32,000  Level Washington Center
Sun 02:53:51 PM 35.7036 -76.9272 210° Southwest 415 478 32,000  Level Washington Center
Sun 02:54:54 PM 35.6044 -76.9964 210° Southwest 421 484 32,000  Level Washington Center
Sun 02:55:55 PM 35.5022 -77.0675 210° Southwest 421 484 32,000  Level Washington Center
Sun 02:57:00 PM 35.4011 -77.1403 210° Southwest 421 484 32,000  Level Washington Center
Sun 02:58:00 PM 35.2794 -77.2272 210° Southwest 421 484 32,000  Level Washington Center
Sun 02:59:04 PM 35.1772 -77.3000 210° Southwest 422 486 32,000  Level Washington Center
Sun 03:00:05 PM 35.0744 -77.3719 210° Southwest 422 486 32,000  Level Washington Center
Sun 03:01:05 PM 34.9722 -77.4431 210° Southwest 422 486 32,000  Level Washington Center
Sun 03:02:10 PM 34.8692 -77.5158 210° Southwest 423 487 32,000  Level Washington Center
Sun 03:03:11 PM 34.7550 -77.5942 209° Southwest 424 488 32,000  Level Washington Center
Sun 03:04:15 PM 34.6525 -77.6669 210° Southwest 425 489 32,000  Level Washington Center
Sun 03:05:16 PM 34.5494 -77.7378 210° Southwest 425 489 32,000  Level Washington Center
Sun 03:06:17 PM 34.4261 -77.8239 210° Southwest 426 490 32,000  Level Washington Center
Sun 03:07:20 PM 34.3178 -77.8825 204° Southwest 428 493 32,000  Level Washington Center
Sun 03:08:21 PM 34.2078 -77.9150 194° South 439 505 32,000  Level Washington Center
Sun 03:09:25 PM 34.0669 -77.9586 194° South 439 505 32,000  Level Washington Center
Sun 03:10:26 PM 33.9497 -77.9928 194° South 438 504 32,000  Level Washington Center
Sun 03:11:29 PM 33.8289 -78.0253 193° South 448 516 32,000  Level Washington Center
Sun 03:12:30 PM 33.7114 -78.0597 194° South 441 507 32,000  Level Washington Center
Sun 03:13:33 PM 33.5942 -78.0939 194° South 437 503 32,000 532 Level Washington Center
Sun 03:14:34 PM 33.4756 -78.1278 193° South 437 503 33,100 960 Climbing Washington Center
Sun 03:15:38 PM 33.3308 -78.1700 194° South 442 509 34,000 432 Climbing Washington Center
Sun 03:16:39 PM 33.2100 -78.2017 192° South 443 510 34,000 246 Level Washington Center
Sun 03:17:40 PM 33.0897 -78.2386 194° South 443 510 34,500 720 Climbing Washington Center
Sun 03:18:44 PM 32.9667 -78.2728 193° South 450 518 35,500 726 Climbing Washington Center
Sun 03:19:44 PM 32.8419 -78.3083 193° South 457 526 36,000 221 Climbing Washington Center
Sun 03:21:00 PM 32.6614 -78.3575 193° South 454 522 36,000  Level Jacksonville Center
Sun 03:22:00 PM 32.5394 -78.3931 194° South 454 522 36,000  Level Jacksonville Center
Sun 03:23:00 PM 32.4153 -78.4239 192° South 459 528 36,000  Level Jacksonville Center
Sun 03:24:00 PM 32.3039 -78.4589 195° South 459 528 36,000  Level Jacksonville Center
Sun 03:25:01 PM 32.1800 -78.4967 194° South 465 535 36,000  Level Jacksonville Center
Sun 03:26:00 PM 32.0539 -78.5344 194° South 465 535 36,000  Level Jacksonville Center
Sun 03:27:00 PM 31.9197 -78.5728 194° South 465 535 36,000  Level Jacksonville Center
Sun 03:28:00 PM 31.7956 -78.6078 193° South 471 542 36,000  Level Jacksonville Center
Sun 03:29:00 PM 31.6717 -78.6453 194° South 471 542 36,000  Level Jacksonville Center
Sun 03:30:00 PM 31.5453 -78.6803 193° South 471 542 36,000  Level Jacksonville Center
Sun 03:31:00 PM 31.4253 -78.7100 192° South 471 542 36,000  Level Jacksonville Center
Sun 03:32:00 PM 31.2972 -78.7522 196° South 471 542 36,000  Level Jacksonville Center
Sun 03:33:00 PM 31.1753 -78.7844 193° South 471 542 36,000  Level Jacksonville Center
Sun 03:34:00 PM 31.0531 -78.8164 193° South 471 542 36,000  Level Jacksonville Center
Sun 03:35:00 PM 30.9292 -78.8556 195° South 471 542 36,000  Level Jacksonville Center
Sun 03:36:00 PM 30.8069 -78.8922 194° South 466 536 36,000  Level Jacksonville Center
Sun 03:37:00 PM 30.6786 -78.9242 192° South 466 536 36,000  Level Jacksonville Center
Sun 03:38:06 PM 30.5586 -78.9606 195° South 451 519 36,000  Level Miami Center
Sun 03:39:06 PM 30.4372 -78.9942 193° South 451 519 36,000  Level Miami Center
Sun 03:40:06 PM 30.3136 -79.0419 198° South 464 534 36,000  Level Miami Center
Sun 03:41:06 PM 30.1919 -79.0875 198° South 464 534 36,000  Level Miami Center
Sun 03:42:06 PM 30.0725 -79.1331 198° South 464 534 36,000  Level Miami Center
Sun 03:43:06 PM 29.9422 -79.1925 202° Southwest 464 534 36,000  Level Miami Center
Sun 03:44:06 PM 29.8206 -79.2400 199° South 464 534 36,000  Level Miami Center
Sun 03:45:06 PM 29.6969 -79.2828 197° South 464 534 36,000  Level Miami Center
Sun 03:51:27 PM 28.9238 -79.5711 198° South 456 525 36,000  Level FlightAware ADS-B
Sun 03:52:28 PM 28.8132 -79.6127 198° South 457 526 36,000  Level FlightAware ADS-B
Sun 03:53:08 PM 28.7228 -79.6468 198° South 457 526 36,000  Level FlightAware ADS-B
Sun 03:53:47 PM 28.6465 -79.6753 198° South 457 526 36,000  Level FlightAware ADS-B
Sun 03:54:37 PM 28.5383 -79.7158 198° South 458 527 36,000  Level FlightAware ADS-B
Sun 03:55:07 PM 28.4785 -79.7381 198° South 458 527 36,000  Level FlightAware ADS-B
Sun 03:55:37 PM 28.4197 -79.7601 198° South 458 527 36,000  Level FlightAware ADS-B
Sun 03:56:07 PM 28.3582 -79.7830 198° South 458 527 36,000  Level FlightAware ADS-B
Sun 03:56:47 PM 28.2787 -79.8127 198° South 459 528 36,000  Level FlightAware ADS-B
Sun 03:57:17 PM 28.2169 -79.8356 198° South 460 529 36,000  Level FlightAware ADS-B
Sun 03:57:47 PM 28.1559 -79.8583 198° South 461 531 36,000  Level FlightAware ADS-B
Sun 03:58:17 PM 28.0943 -79.8812 198° South 462 532 36,000  Level FlightAware ADS-B
Sun 03:58:57 PM 28.0200 -79.9086 198° South 462 532 36,000  Level FlightAware ADS-B
Sun 03:59:38 PM 27.9330 -79.9408 198° South 461 531 36,000  Level FlightAware ADS-B
Sun 04:00:18 PM 27.8502 -79.9714 198° South 459 528 36,000  Level FlightAware ADS-B
Sun 04:00:57 PM 27.7700 -80.0009 198° South 458 527 36,000  Level FlightAware ADS-B
Sun 04:01:27 PM 27.7091 -80.0233 198° South 457 526 36,000  Level FlightAware ADS-B
Sun 04:01:57 PM 27.6496 -80.0451 198° South 455 524 36,000  Level FlightAware ADS-B
Sun 04:02:58 PM 27.5289 -80.0894 198° South 454 522 36,000  Level FlightAware ADS-B
Sun 04:03:37 PM 27.4498 -80.1184 198° South 452 520 36,000  Level FlightAware ADS-B
Sun 04:04:07 PM 27.3908 -80.1400 198° South 451 519 36,000  Level FlightAware ADS-B
Sun 04:04:47 PM 27.3136 -80.1682 198° South 450 518 36,000  Level FlightAware ADS-B
Sun 04:05:17 PM 27.2514 -80.1908 198° South 450 518 36,000  Level FlightAware ADS-B
Sun 04:05:47 PM 27.1909 -80.2129 198° South 450 518 36,000  Level FlightAware ADS-B
Sun 04:06:28 PM 27.1125 -80.2414 198° South 451 519 36,000  Level FlightAware ADS-B
Sun 04:07:07 PM 27.0366 -80.2690 198° South 451 519 36,000  Level FlightAware ADS-B
Sun 04:07:37 PM 26.9722 -80.2924 198° South 451 519 36,000  Level FlightAware ADS-B
Sun 04:08:07 PM 26.9151 -80.3131 198° South 452 520 36,000  Level FlightAware ADS-B
Sun 04:08:37 PM 26.8562 -80.3344 198° South 453 521 36,000  Level FlightAware ADS-B
Sun 04:09:08 PM 26.7931 -80.3572 198° South 452 520 36,000  Level FlightAware ADS-B
Sun 04:09:47 PM 26.7149 -80.3855 198° South 452 520 36,000  Level FlightAware ADS-B
Sun 04:10:18 PM 26.6587 -80.4058 198° South 452 520 36,000  Level FlightAware ADS-B
Sun 04:10:57 PM 26.5748 -80.4360 198° South 451 519 36,000  Level FlightAware ADS-B
Sun 04:11:27 PM 26.5141 -80.4578 198° South 451 519 36,000  Level FlightAware ADS-B
Sun 04:11:57 PM 26.4567 -80.4784 198° South 452 520 36,000  Level FlightAware ADS-B
Sun 04:12:27 PM 26.3954 -80.5003 198° South 453 521 36,000  Level FlightAware ADS-B
Sun 04:12:57 PM 26.3349 -80.5221 198° South 454 522 36,000  Level FlightAware ADS-B
Sun 04:13:47 PM 26.2349 -80.5578 198° South 454 522 36,000  Level FlightAware ADS-B
Sun 04:14:17 PM 26.1743 -80.5796 198° South 454 522 36,000  Level FlightAware ADS-B
Sun 04:14:47 PM 26.1157 -80.6005 198° South 454 522 36,000  Level FlightAware ADS-B
Sun 04:15:17 PM 26.0577 -80.6213 198° South 454 522 36,000  Level FlightAware ADS-B
Sun 04:15:57 PM 25.9751 -80.6506 198° South 454 522 36,000  Level FlightAware ADS-B
Sun 04:16:27 PM 25.9150 -80.6720 198° South 453 521 36,000  Level FlightAware ADS-B
Sun 04:16:57 PM 25.8554 -80.6932 198° South 452 520 36,000  Level FlightAware ADS-B
Sun 04:17:27 PM 25.7970 -80.7139 198° South 451 519 36,000  Level FlightAware ADS-B
Sun 04:18:07 PM 25.7166 -80.7424 198° South 451 519 36,000  Level FlightAware ADS-B
Sun 04:19:17 PM 25.5959 -80.7919 215° Southwest 434 499 36,000  Level FlightAware ADS-B
Sun 04:19:57 PM 25.5289 -80.8615 225° Southwest 425 489 36,000  Level FlightAware ADS-B
Sun 04:20:27 PM 25.4875 -80.9072 225° Southwest 426 490 36,000  Level FlightAware ADS-B
Sun 04:21:37 PM 25.3938 -81.0104 225° Southwest 430 495 36,000  Level FlightAware ADS-B
Sun 04:24:27 PM 25.1599 -81.2669 225° Southwest 431 496 36,000  Level FlightAware ADS-B
Sun 04:25:30 PM 25.0692 -81.3639 225° Southwest 429 494 36,000 -390 Level Miami Center
Sun 04:26:30 PM 24.9825 -81.4617 226° Southwest 429 494 35,200 -900 Descending Miami Center
Sun 04:27:30 PM 24.8983 -81.5544 225° Southwest 429 494 34,200 -1,050 Descending Miami Center
Sun 04:28:30 PM 24.8094 -81.6542 226° Southwest 421 484 33,100 -1,050 Descending Miami Center
Sun 04:29:30 PM 24.7206 -81.7511 225° Southwest 432 497 32,100 -1,150 Descending Miami Center
Sun 04:30:30 PM 24.6339 -81.8461 225° Southwest 438 504 30,800 -1,500 Descending Miami Center
Sun 04:31:30 PM 24.5606 -81.9183 222° Southwest 423 487 29,100 -1,750 Descending Miami Center
Sun 04:32:30 PM 24.4781 -82.0064 224° Southwest 412 474 27,300 -1,450 Descending Miami Center
Sun 04:33:30 PM 24.3978 -82.0919 224° Southwest 412 474 26,200 -1,000 Descending Miami Center
Sun 04:34:30 PM 24.3194 -82.1822 226° Southwest 412 474 25,300 -950 Descending Miami Center
Sun 04:35:30 PM 24.2372 -82.2672 223° Southwest 412 474 24,300 -1,000 Descending Miami Center
Sun 04:36:30 PM 24.1611 -82.3483 224° Southwest 406 467 23,300 -1,000 Descending Miami Center
Sun 04:37:30 PM 24.0786 -82.4333 223° Southwest 400 460 22,300 -800 Descending Miami Center
Sun 04:38:30 PM 23.9983 -82.5139 223° Southwest 400 460 21,700 -600 Descending Miami Center
Sun 04:40:00 PM 23.8306 -82.4925 173° South  Level FlightAware Approximate
Sun 04:47:00 PM 23.0271 -82.4000 180° South  Level FlightAware Approximate
Sun 04:48:00 PM 22.9891 -82.4091 180° South  Level Estimated
Sun 04:49:00 PM 22.9891 -82.4091 180° South  Level Estimated
Sun 04:50:00 PM 22.9891 -82.4091 180° South  Level Estimated
Sun 04:51:00 PM 22.9891 -82.4091 180° South  Level Estimated
Sun 04:52:00 PM 22.9891 -82.4091 180° South  Level Estimated
Sun 04:53:00 PM 22.9891 -82.4091 180° South  Level Estimated
Sun 04:54:00 PM 22.9891 -82.4091 180° South  Level Estimated
Sun 04:55:00 PM 22.9891 -82.4091 180° South  Level Estimated
Sun 04:56:00 PM 22.9891 -82.4091 180° South  Level Estimated
Sun 04:57:00 PM 22.9891 -82.4091 180° South  Level Estimated
Sun 04:58:00 PM 22.9891 -82.4091 180° South  Level Estimated
Sun 04:59:00 PM 22.9891 -82.4091 180° South  Level Estimated
Sun 05:00:00 PM 22.9891 -82.4091 180° South  Level Estimated
Sun 05:01:00 PM 22.9891 -82.4091 180° South  Level Estimated
Sun 05:02:00 PM 22.9891 -82.4091 180° South  Level Estimated
Sun 05:03:00 PM 22.9891 -82.4091 180° South  Level Estimated
Sun 05:04:00 PM 22.9891 -82.4091 180° South  Level Estimated
Sun 05:05:00 PM 22.9891 -82.4091 180° South  Level Estimated
Sun 05:06:00 PM 22.9891 -82.4091 180° South  Level Estimated
Sun 05:07:00 PM 22.9891 -82.4091 180° South  Level Estimated
Sun 05:08:00 PM 22.9891 -82.4091 180° South  Level Estimated
Sun 05:09:00 PM 22.9891 -82.4091 180° South  Level Estimated

Login

Don't have an account? Register now (free) for customized features, flight alerts, and more!